Time;durP1;ratioP1;P1;durP2;ratioP2;P2;SDS_P1;SDS_P2;PMS_P1;PMS_P2;Temp;Humidity;BMP_temperature;BMP_pressure;BME280_temperature;BME280_humidity;BME280_pressure;Samples;Min_cycle;Max_cycle;Signal;HPM_P1;HPM_P2
2023/08/23 00:01:32;;;;;;;;;0.00;0.00;;;;;-146.67;100.00;57155.34;5064601;28;8795;-76
2023/08/23 00:03:57;;;;;;;;;1.00;1.00;;;;;-146.67;100.00;57155.34;5046900;28;8799;-76
2023/08/23 00:06:23;;;;;;;;;0.33;0.33;;;;;-146.67;100.00;57155.34;5064920;28;8757;-75
2023/08/23 00:08:49;;;;;;;;;1.00;1.00;;;;;-146.67;100.00;57155.34;5064879;28;8777;-76
2023/08/23 00:11:14;;;;;;;;;0.67;0.67;;;;;-146.67;100.00;57155.34;5064785;28;8793;-75
2023/08/23 00:13:40;;;;;;;;;0.00;0.00;;;;;-146.67;100.00;57155.34;5063567;28;8788;-76
2023/08/23 00:16:05;;;;;;;;;0.33;0.33;;;;;-146.67;100.00;57155.34;5064642;28;8777;-76
2023/08/23 00:18:30;;;;;;;;;0.33;0.33;;;;;-146.67;100.00;57155.34;5062917;28;9834;-75
2023/08/23 00:20:56;;;;;;;;;1.00;1.00;;;;;-146.67;100.00;57155.34;5063936;28;8808;-76
2023/08/23 00:23:21;;;;;;;;;1.33;1.00;;;;;-146.67;100.00;57155.34;5064430;28;8761;-76
2023/08/23 00:25:46;;;;;;;;;0.00;0.00;;;;;-146.67;100.00;57155.34;5064688;28;8919;-76
2023/08/23 00:28:12;;;;;;;;;0.00;0.00;;;;;-146.67;100.00;57155.34;5064358;28;8776;-76
2023/08/23 00:30:37;;;;;;;;;1.00;1.00;;;;;-146.67;100.00;57155.34;5064070;28;8861;-76
2023/08/23 00:33:03;;;;;;;;;0.00;0.00;;;;;-146.67;100.00;57155.34;5064060;28;8875;-76
2023/08/23 00:35:28;;;;;;;;;1.00;1.00;;;;;-146.67;100.00;57155.34;5064506;28;8776;-75
2023/08/23 00:37:53;;;;;;;;;1.33;0.00;;;;;-146.67;100.00;57155.34;5078207;28;8837;-75
2023/08/23 00:40:20;;;;;;;;;0.67;0.67;;;;;-146.67;100.00;57155.34;5084128;28;8836;-75
2023/08/23 00:42:45;;;;;;;;;2.00;0.67;;;;;-146.67;100.00;57155.34;5076304;28;8751;-76
2023/08/23 00:45:11;;;;;;;;;0.00;0.00;;;;;-146.67;100.00;57155.34;5065789;28;9201;-76
2023/08/23 00:47:37;;;;;;;;;0.67;0.67;;;;;-146.67;100.00;57155.34;5084018;28;8845;-76
2023/08/23 00:50:03;;;;;;;;;0.00;0.00;;;;;-146.67;100.00;57155.34;5083746;28;8795;-76
2023/08/23 00:52:28;;;;;;;;;0.00;0.00;;;;;-146.67;100.00;57155.34;5066053;28;8836;-76
2023/08/23 00:54:55;;;;;;;;;0.00;0.00;;;;;-146.67;100.00;57155.34;5084042;28;8853;-75
2023/08/23 00:57:21;;;;;;;;;1.00;1.00;;;;;-146.67;100.00;57155.34;5084212;28;8776;-76
2023/08/23 00:59:47;;;;;;;;;0.00;0.00;;;;;-146.67;100.00;57155.34;5098842;28;9193;-76
2023/08/23 01:02:13;;;;;;;;;0.00;0.00;;;;;-146.67;100.00;57155.34;5065574;28;9246;-75
2023/08/23 01:04:38;;;;;;;;;2.00;1.00;;;;;-146.67;100.00;57155.34;5099236;28;9299;-75
2023/08/23 01:07:03;;;;;;;;;1.00;0.00;;;;;-146.67;100.00;57155.34;5084009;28;8831;-76
2023/08/23 01:09:40;;;;;;;;;0.00;0.00;;;;;-146.67;100.00;57155.34;5083671;28;8785;-75
2023/08/23 01:12:16;;;;;;;;;1.67;0.67;;;;;-146.67;100.00;57155.34;5066039;28;8752;-76
2023/08/23 01:14:45;;;;;;;;;1.67;0.33;;;;;-146.67;100.00;57155.34;5065326;28;9187;-76
2023/08/23 01:17:14;;;;;;;;;0.00;0.00;;;;;-146.67;100.00;57155.34;5063710;28;10516;-76
2023/08/23 01:19:45;;;;;;;;;0.00;0.00;;;;;-146.67;100.00;57155.34;5051686;28;10359;-76
2023/08/23 01:22:18;;;;;;;;;1.00;0.00;;;;;-146.67;100.00;57155.34;5061320;28;9251;-76
2023/08/23 01:24:44;;;;;;;;;1.33;0.00;;;;;-146.67;100.00;57155.34;5062408;28;9213;-76
2023/08/23 01:27:09;;;;;;;;;0.00;0.00;;;;;-146.67;100.00;57155.34;5062047;28;9460;-76
2023/08/23 01:29:35;;;;;;;;;0.00;0.00;;;;;-146.67;100.00;57155.34;5062787;28;11637;-76
2023/08/23 01:32:12;;;;;;;;;0.33;0.00;;;;;-146.67;100.00;57155.34;5045184;28;8796;-75
2023/08/23 01:34:43;;;;;;;;;0.00;0.00;;;;;-146.67;100.00;57155.34;5063443;28;8779;-75
2023/08/23 01:37:10;;;;;;;;;0.33;0.33;;;;;-146.67;100.00;57155.34;5055077;28;9380;-76
2023/08/23 01:39:36;;;;;;;;;0.00;0.00;;;;;-146.67;100.00;57155.34;5060463;28;9264;-76
2023/08/23 01:42:02;;;;;;;;;0.00;0.00;;;;;-146.67;100.00;57155.34;5063421;28;9353;-76
2023/08/23 01:44:27;;;;;;;;;0.00;0.00;;;;;-146.67;100.00;57155.34;5062861;28;9099;-75
2023/08/23 01:46:53;;;;;;;;;0.00;0.00;;;;;-146.67;100.00;57155.34;5044892;28;9916;-76
2023/08/23 01:49:18;;;;;;;;;0.00;0.00;;;;;-146.67;100.00;57155.34;5062330;28;8814;-76
2023/08/23 01:51:44;;;;;;;;;1.00;0.00;;;;;-146.67;100.00;57155.34;5063136;28;9457;-75
2023/08/23 01:54:09;;;;;;;;;0.00;0.00;;;;;-146.67;100.00;57155.34;5048258;28;8817;-75
2023/08/23 01:56:34;;;;;;;;;0.00;0.00;;;;;-146.67;100.00;57155.34;5081746;28;8832;-76
2023/08/23 01:59:01;;;;;;;;;0.00;0.00;;;;;-146.67;100.00;57155.34;5082743;28;8778;-76
2023/08/23 02:01:26;;;;;;;;;0.00;0.00;;;;;-146.67;100.00;57155.34;5064801;28;8786;-75
2023/08/23 02:03:52;;;;;;;;;1.00;1.00;;;;;-146.67;100.00;57155.34;5082752;28;9429;-75
2023/08/23 02:06:17;;;;;;;;;0.67;0.00;;;;;-146.67;100.00;57155.34;5083049;28;8798;-76
2023/08/23 02:08:43;;;;;;;;;0.00;0.00;;;;;-146.67;100.00;57155.34;5082978;28;8778;-75
2023/08/23 02:11:08;;;;;;;;;0.00;0.00;;;;;-146.67;100.00;57155.34;5082848;28;8798;-75
2023/08/23 02:13:33;;;;;;;;;0.00;0.00;;;;;-146.67;100.00;57155.34;5082637;28;8823;-75
2023/08/23 02:15:59;;;;;;;;;0.33;0.00;;;;;-146.67;100.00;57155.34;5082438;28;8858;-75
2023/08/23 02:18:24;;;;;;;;;0.33;0.00;;;;;-146.67;100.00;57155.34;5082208;28;8817;-76
2023/08/23 02:20:57;;;;;;;;;0.00;0.00;;;;;-146.67;100.00;57155.34;5082064;28;8789;-75
2023/08/23 02:23:22;;;;;;;;;1.00;1.00;;;;;-146.67;100.00;57155.34;5083099;28;8761;-75
2023/08/23 02:25:48;;;;;;;;;0.00;0.00;;;;;-146.67;100.00;57155.34;5082358;28;9437;-76
2023/08/23 02:28:13;;;;;;;;;1.00;0.00;;;;;-146.67;100.00;57155.34;5082786;28;8770;-75
2023/08/23 02:30:38;;;;;;;;;0.33;0.00;;;;;-146.67;100.00;57155.34;5064560;28;8801;-75
2023/08/23 02:33:04;;;;;;;;;1.00;0.00;;;;;-146.67;100.00;57155.34;5082337;28;8891;-76
2023/08/23 02:35:29;;;;;;;;;0.00;0.00;;;;;-146.67;100.00;57155.34;5082933;28;8876;-75
2023/08/23 02:37:55;;;;;;;;;0.00;0.00;;;;;-146.67;100.00;57155.34;5060842;28;8822;-75
2023/08/23 02:40:20;;;;;;;;;0.33;0.33;;;;;-146.67;100.00;57155.34;5060791;28;8894;-76
2023/08/23 02:42:45;;;;;;;;;0.00;0.00;;;;;-146.67;100.00;57155.34;5062781;28;8813;-76
2023/08/23 02:45:11;;;;;;;;;0.00;0.00;;;;;-146.67;100.00;57155.34;5062374;28;8810;-75
2023/08/23 02:47:36;;;;;;;;;0.00;0.00;;;;;-146.67;100.00;57155.34;5060828;28;8791;-76
2023/08/23 02:50:02;;;;;;;;;2.00;0.33;;;;;-146.67;100.00;57155.34;5061733;28;9551;-75
2023/08/23 02:52:27;;;;;;;;;0.00;0.00;;;;;-146.67;100.00;57155.34;5061223;28;8845;-75
2023/08/23 02:54:52;;;;;;;;;0.00;0.00;;;;;-146.67;100.00;57155.34;5060192;28;9844;-75
2023/08/23 02:57:18;;;;;;;;;0.00;0.00;;;;;-146.67;100.00;57155.34;5079095;28;8816;-75
2023/08/23 02:59:43;;;;;;;;;0.00;0.00;;;;;-146.67;100.00;57155.34;5064294;28;8914;-76
2023/08/23 03:02:09;;;;;;;;;0.00;0.00;;;;;-146.67;100.00;57155.34;5082131;28;8781;-75
2023/08/23 03:04:34;;;;;;;;;0.00;0.00;;;;;-146.67;100.00;57155.34;5082522;28;8811;-75
2023/08/23 03:06:59;;;;;;;;;1.67;0.00;;;;;-146.67;100.00;57155.34;5063997;28;8898;-75
2023/08/23 03:09:25;;;;;;;;;0.00;0.00;;;;;-146.67;100.00;57155.34;5082042;28;8793;-75
2023/08/23 03:11:50;;;;;;;;;0.75;0.25;;;;;-146.67;100.00;57155.34;5082608;28;8789;-76
2023/08/23 03:14:15;;;;;;;;;1.67;0.00;;;;;-146.67;100.00;57155.34;5063894;28;9894;-75
2023/08/23 03:16:41;;;;;;;;;0.00;0.00;;;;;-146.67;100.00;57155.34;5082244;28;8809;-76
2023/08/23 03:19:07;;;;;;;;;1.00;0.33;;;;;-146.67;100.00;57155.34;5081759;28;8770;-75
2023/08/23 03:21:32;;;;;;;;;1.00;0.00;;;;;-146.67;100.00;57155.34;5081780;28;8777;-75
2023/08/23 03:23:58;;;;;;;;;2.33;0.00;;;;;-146.67;100.00;57155.34;5063469;28;11120;-76
2023/08/23 03:26:23;;;;;;;;;0.00;0.00;;;;;-146.67;100.00;57155.34;5082279;28;8860;-75
2023/08/23 03:28:48;;;;;;;;;0.33;0.33;;;;;-146.67;100.00;57155.34;5084298;28;8769;-75
2023/08/23 03:31:14;;;;;;;;;0.00;0.00;;;;;-146.67;100.00;57155.34;5085236;28;8844;-75
2023/08/23 03:33:39;;;;;;;;;0.00;0.00;;;;;-146.67;100.00;57155.34;5085483;28;8781;-75
2023/08/23 03:36:05;;;;;;;;;0.00;0.00;;;;;-146.67;100.00;57155.34;5085639;28;8770;-76
2023/08/23 03:38:30;;;;;;;;;1.00;1.00;;;;;-146.67;100.00;57155.34;5081507;28;9031;-77
2023/08/23 03:40:56;;;;;;;;;0.00;0.00;;;;;-146.67;100.00;57155.34;5085319;28;8916;-75
2023/08/23 03:43:21;;;;;;;;;0.00;0.00;;;;;-146.67;100.00;57155.34;5067301;28;9972;-75
2023/08/23 03:45:50;;;;;;;;;0.67;0.00;;;;;-146.67;100.00;57155.34;5085522;28;9417;-75
2023/08/23 03:48:16;;;;;;;;;2.33;0.00;;;;;-146.67;100.00;57155.34;5066804;28;8786;-75
2023/08/23 03:50:42;;;;;;;;;0.00;0.00;;;;;-146.67;100.00;57155.34;5084758;28;9426;-75
2023/08/23 03:53:08;;;;;;;;;0.00;0.00;;;;;-146.67;100.00;57155.34;5084858;28;9626;-75
2023/08/23 03:55:36;;;;;;;;;1.00;0.00;;;;;-146.67;100.00;57155.34;5084835;28;9393;-75
2023/08/23 03:58:02;;;;;;;;;0.00;0.00;;;;;-146.67;100.00;57155.34;5085581;28;9786;-75
2023/08/23 04:00:27;;;;;;;;;0.50;0.50;;;;;-146.67;100.00;57155.34;5084783;28;9472;-75
2023/08/23 04:02:53;;;;;;;;;0.00;0.00;;;;;-146.67;100.00;57155.34;5084852;28;8786;-75
2023/08/23 04:05:18;;;;;;;;;2.00;0.75;;;;;-146.67;100.00;57155.34;5067099;28;8901;-75
2023/08/23 04:07:43;;;;;;;;;0.00;0.00;;;;;-146.67;100.00;57155.34;5066528;28;8786;-75
2023/08/23 04:10:09;;;;;;;;;2.00;0.25;;;;;-146.67;100.00;57155.34;5084929;28;8783;-75
2023/08/23 04:12:35;;;;;;;;;0.00;0.00;;;;;-146.67;100.00;57155.34;5067007;28;10039;-75
2023/08/23 04:15:00;;;;;;;;;0.75;0.75;;;;;-146.67;100.00;57155.34;5066640;28;9606;-76
2023/08/23 04:17:25;;;;;;;;;0.00;0.00;;;;;-146.67;100.00;57155.34;5084588;28;8767;-76
2023/08/23 04:19:51;;;;;;;;;2.00;1.00;;;;;-146.67;100.00;57155.34;5066226;28;8782;-75
2023/08/23 04:22:16;;;;;;;;;0.25;0.25;;;;;-146.67;100.00;57155.34;5066261;28;9934;-75
2023/08/23 04:24:41;;;;;;;;;0.00;0.00;;;;;-146.67;100.00;57155.34;5084970;28;8797;-75
2023/08/23 04:27:07;;;;;;;;;2.00;0.75;;;;;-146.67;100.00;57155.34;5084691;28;8782;-75
2023/08/23 04:29:32;;;;;;;;;3.00;1.00;;;;;-146.67;100.00;57155.34;5066010;28;8802;-76
2023/08/23 04:31:58;;;;;;;;;2.75;2.00;;;;;-146.67;100.00;57155.34;5084475;28;8775;-75
2023/08/23 04:34:23;;;;;;;;;4.00;1.50;;;;;-146.67;100.00;57155.34;5066459;28;9665;-76
2023/08/23 04:36:48;;;;;;;;;2.00;2.00;;;;;-146.67;100.00;57155.34;5084139;28;8783;-75
2023/08/23 04:39:14;;;;;;;;;2.50;2.50;;;;;-146.67;100.00;57155.34;5065827;28;8779;-75
2023/08/23 04:41:39;;;;;;;;;3.00;1.67;;;;;-146.67;100.00;57155.34;5083970;28;8763;-75
2023/08/23 04:44:05;;;;;;;;;3.50;2.25;;;;;-146.67;100.00;57155.34;5066465;28;8774;-75
2023/08/23 04:46:30;;;;;;;;;1.00;1.00;;;;;-146.67;100.00;57155.34;5066087;28;8847;-75
2023/08/23 04:48:55;;;;;;;;;2.75;2.00;;;;;-146.67;100.00;57155.34;5065922;28;8821;-76
2023/08/23 04:51:22;;;;;;;;;3.67;2.00;;;;;-146.67;100.00;57155.34;5083119;28;8794;-75
2023/08/23 04:53:47;;;;;;;;;0.67;0.67;;;;;-146.67;100.00;57155.34;5066052;28;8802;-76
2023/08/23 04:56:12;;;;;;;;;2.00;1.50;;;;;-146.67;100.00;57155.34;5084458;28;9416;-75
2023/08/23 04:58:38;;;;;;;;;5.00;0.25;;;;;-146.67;100.00;57155.34;5084252;28;8797;-75
2023/08/23 05:01:04;;;;;;;;;1.75;0.50;;;;;-146.67;100.00;57155.34;5084079;28;9379;-75
2023/08/23 05:03:34;;;;;;;;;1.00;1.00;;;;;-146.67;100.00;57155.34;5065765;28;8898;-75
2023/08/23 05:06:00;;;;;;;;;1.00;1.00;;;;;-146.67;100.00;57155.34;5082733;28;8858;-75
2023/08/23 05:08:27;;;;;;;;;2.00;0.00;;;;;-146.67;100.00;57155.34;5085391;28;9513;-76
2023/08/23 05:10:53;;;;;;;;;1.75;1.00;;;;;-146.67;100.00;57155.34;5083099;28;9570;-83
2023/08/23 05:13:19;;;;;;;;;3.25;1.00;;;;;-146.67;100.00;57155.34;5083688;28;9584;-75
2023/08/23 05:15:50;;;;;;;;;0.00;0.00;;;;;-146.67;100.00;57155.34;5065100;28;9584;-76
2023/08/23 05:18:15;;;;;;;;;1.25;0.75;;;;;-146.67;100.00;57155.34;5083344;28;10166;-75
2023/08/23 05:20:40;;;;;;;;;1.25;1.25;;;;;-146.67;100.00;57155.34;5064491;28;9978;-74
2023/08/23 05:23:06;;;;;;;;;1.25;1.25;;;;;-146.67;100.00;57155.34;5083852;28;8779;-74
2023/08/23 05:25:31;;;;;;;;;0.00;0.00;;;;;-146.67;100.00;57155.34;5083340;28;8799;-74
2023/08/23 05:27:56;;;;;;;;;0.75;0.75;;;;;-146.67;100.00;57155.34;5065480;28;9138;-74
2023/08/23 05:30:22;;;;;;;;;2.50;0.00;;;;;-146.67;100.00;57155.34;5083118;28;8818;-77
2023/08/23 05:32:51;;;;;;;;;1.00;1.00;;;;;-146.67;100.00;57155.34;5079927;28;8810;-75
2023/08/23 05:35:17;;;;;;;;;1.67;0.00;;;;;-146.67;100.00;57155.34;5083164;28;8795;-75
2023/08/23 05:37:42;;;;;;;;;1.00;1.00;;;;;-146.67;100.00;57155.34;5082310;28;9490;-77
2023/08/23 05:40:08;;;;;;;;;0.25;0.25;;;;;-146.67;100.00;57155.34;5057354;28;9925;-76
2023/08/23 05:42:34;;;;;;;;;0.00;0.00;;;;;-146.67;100.00;57155.34;5080946;28;8735;-77
2023/08/23 05:44:59;;;;;;;;;0.75;0.75;;;;;-146.67;100.00;57155.34;5082820;28;9693;-77
2023/08/23 05:47:25;;;;;;;;;0.00;0.00;;;;;-146.67;100.00;57155.34;5082908;28;8771;-77
2023/08/23 05:49:50;;;;;;;;;1.00;1.00;;;;;-146.67;100.00;57155.34;5081395;28;8903;-76
2023/08/23 05:52:16;;;;;;;;;0.00;0.00;;;;;-146.67;100.00;57155.34;5063667;28;9124;-76
2023/08/23 05:54:42;;;;;;;;;1.00;1.00;;;;;-146.67;100.00;57155.34;5064229;28;8864;-78
2023/08/23 05:57:08;;;;;;;;;1.33;1.00;;;;;-146.67;100.00;57155.34;5083074;28;9410;-78
2023/08/23 05:59:33;;;;;;;;;1.75;1.75;;;;;-146.67;100.00;57155.34;5082226;28;9596;-79
2023/08/23 06:01:59;;;;;;;;;1.25;0.25;;;;;-146.67;100.00;57155.34;5063923;28;8930;-75
2023/08/23 06:04:24;;;;;;;;;2.67;2.00;;;;;-146.67;100.00;57155.34;5082358;28;8793;-76
2023/08/23 06:06:50;;;;;;;;;0.67;0.67;;;;;-146.67;100.00;57155.34;5082517;28;8852;-76
2023/08/23 06:09:17;;;;;;;;;0.00;0.00;;;;;-146.67;100.00;57155.34;5064608;28;10132;-76
2023/08/23 06:11:43;;;;;;;;;2.75;1.00;;;;;-146.67;100.00;57155.34;5082350;28;8777;-78
2023/08/23 06:14:19;;;;;;;;;1.00;1.00;;;;;-146.67;100.00;57155.34;5064589;28;9500;-77
2023/08/23 06:16:45;;;;;;;;;1.00;0.67;;;;;-146.67;100.00;57155.34;5064245;28;8808;-77
2023/08/23 06:19:11;;;;;;;;;1.00;1.00;;;;;-146.67;100.00;57155.34;5082056;28;9662;-79
2023/08/23 06:21:37;;;;;;;;;1.33;1.00;;;;;-146.67;100.00;57155.34;5081890;28;9141;-79
2023/08/23 06:24:03;;;;;;;;;0.33;0.33;;;;;-146.67;100.00;57155.34;5082414;28;9424;-79
2023/08/23 06:26:29;;;;;;;;;2.00;0.00;;;;;-146.67;100.00;57155.34;5063988;28;8822;-78
2023/08/23 06:28:55;;;;;;;;;0.67;0.67;;;;;-146.67;100.00;57155.34;5064135;28;10379;-79
2023/08/23 06:31:21;;;;;;;;;0.67;0.67;;;;;-146.67;100.00;57155.34;5081985;28;9464;-77
2023/08/23 06:33:46;;;;;;;;;1.00;1.00;;;;;-146.67;100.00;57155.34;5063436;28;8829;-77
2023/08/23 06:36:12;;;;;;;;;0.00;0.00;;;;;-146.67;100.00;57155.34;5064141;28;8828;-77
2023/08/23 06:38:37;;;;;;;;;3.00;1.00;;;;;-146.67;100.00;57155.34;5064305;28;10410;-85
2023/08/23 06:41:02;;;;;;;;;0.67;0.33;;;;;-146.67;100.00;57155.34;5063667;28;8822;-77
2023/08/23 06:43:28;;;;;;;;;1.00;1.00;;;;;-146.67;100.00;57155.34;5080514;28;8829;-76
2023/08/23 06:45:53;;;;;;;;;0.00;0.00;;;;;-146.67;100.00;57155.34;5080248;28;8908;-76
2023/08/23 06:48:19;;;;;;;;;0.33;0.33;;;;;-146.67;100.00;57155.34;5080633;28;8930;-79
2023/08/23 06:50:44;;;;;;;;;1.00;1.00;;;;;-146.67;100.00;57155.34;5079064;28;9280;-77
2023/08/23 06:53:10;;;;;;;;;2.00;1.33;;;;;-146.67;100.00;57155.34;5063581;28;8829;-77
2023/08/23 06:55:41;;;;;;;;;3.33;2.33;;;;;-146.67;100.00;57155.34;5079355;28;8856;-75
2023/08/23 06:58:10;;;;;;;;;2.33;1.33;;;;;-146.67;100.00;57155.34;5079577;28;10010;-77
2023/08/23 07:00:35;;;;;;;;;2.33;1.00;;;;;-146.67;100.00;57155.34;5063041;28;9371;-75
2023/08/23 07:03:05;;;;;;;;;1.00;1.00;;;;;-146.67;100.00;57155.34;5080954;28;9439;-76
2023/08/23 07:05:34;;;;;;;;;3.67;2.00;;;;;-146.67;100.00;57155.34;5066350;28;8816;-74
2023/08/23 07:07:59;;;;;;;;;1.75;1.75;;;;;-146.67;100.00;57155.34;5067186;28;10039;-74
2023/08/23 07:10:24;;;;;;;;;0.33;0.33;;;;;-146.67;100.00;57155.34;5091298;28;9563;-75
2023/08/23 07:12:50;;;;;;;;;2.00;2.00;;;;;-146.67;100.00;57155.34;5083555;28;8817;-75
2023/08/23 07:15:15;;;;;;;;;1.00;0.67;;;;;-146.67;100.00;57155.34;5084202;28;8781;-75
2023/08/23 07:17:40;;;;;;;;;1.00;0.67;;;;;-146.67;100.00;57155.34;5082851;28;8828;-76
2023/08/23 07:20:06;;;;;;;;;1.33;1.00;;;;;-146.67;100.00;57155.34;5082734;28;8838;-75
2023/08/23 07:22:32;;;;;;;;;0.67;0.67;;;;;-146.67;100.00;57155.34;5082787;28;8758;-75
2023/08/23 07:24:57;;;;;;;;;2.33;1.33;;;;;-146.67;100.00;57155.34;5082868;28;9877;-75
2023/08/23 07:27:23;;;;;;;;;3.00;1.00;;;;;-146.67;100.00;57155.34;5064997;28;10871;-77
2023/08/23 07:29:48;;;;;;;;;2.00;1.00;;;;;-146.67;100.00;57155.34;5083123;28;8824;-78
2023/08/23 07:32:14;;;;;;;;;0.67;0.67;;;;;-146.67;100.00;57155.34;5083396;28;8932;-78
2023/08/23 07:34:39;;;;;;;;;3.67;1.00;;;;;-146.67;100.00;57155.34;5085389;28;8793;-75
2023/08/23 07:37:06;;;;;;;;;2.00;1.00;;;;;-146.67;100.00;57155.34;5084798;28;8851;-76
2023/08/23 07:39:31;;;;;;;;;4.00;2.00;;;;;-146.67;100.00;57155.34;5084761;28;8809;-75
2023/08/23 07:41:56;;;;;;;;;1.67;1.67;;;;;-146.67;100.00;57155.34;5085093;28;9378;-75
2023/08/23 07:44:22;;;;;;;;;2.33;0.67;;;;;-146.67;100.00;57155.34;5084602;28;8887;-76
2023/08/23 07:46:47;;;;;;;;;1.33;1.00;;;;;-146.67;100.00;57155.34;5084253;28;8892;-76
2023/08/23 07:49:16;;;;;;;;;4.33;2.67;;;;;-146.67;100.00;57155.34;5084451;28;8900;-77
2023/08/23 07:51:42;;;;;;;;;3.33;1.67;;;;;-146.67;100.00;57155.34;5068169;28;8822;-75
2023/08/23 07:54:07;;;;;;;;;2.00;1.67;;;;;-146.67;100.00;57155.34;5104012;28;10065;-76
2023/08/23 07:56:33;;;;;;;;;1.67;0.33;;;;;-146.67;100.00;57155.34;5066075;28;10091;-76
2023/08/23 07:58:59;;;;;;;;;1.00;1.00;;;;;-146.67;100.00;57155.34;5086967;28;8794;-76
2023/08/23 08:01:25;;;;;;;;;3.00;1.00;;;;;-146.67;100.00;57155.34;5083724;28;11516;-75
2023/08/23 08:03:51;;;;;;;;;1.67;0.00;;;;;-146.67;100.00;57155.34;5066324;28;8814;-78
2023/08/23 08:06:17;;;;;;;;;0.67;0.67;;;;;-146.67;100.00;57155.34;5084833;28;8804;-76
2023/08/23 08:08:43;;;;;;;;;0.67;0.67;;;;;-146.67;100.00;57155.34;5066427;28;9409;-84
2023/08/23 08:11:12;;;;;;;;;1.33;1.33;;;;;-146.67;100.00;57155.34;5065741;28;8822;-77
2023/08/23 08:13:38;;;;;;;;;2.00;1.67;;;;;-146.67;100.00;57155.34;5084431;28;8839;-75
2023/08/23 08:16:09;;;;;;;;;1.33;0.33;;;;;-146.67;100.00;57155.34;5083212;28;9367;-75
2023/08/23 08:18:35;;;;;;;;;3.33;0.67;;;;;-146.67;100.00;57155.34;5081890;28;8818;-75
2023/08/23 08:21:00;;;;;;;;;3.00;0.00;;;;;-146.67;100.00;57155.34;5084170;28;9896;-75
2023/08/23 08:23:26;;;;;;;;;1.00;1.00;;;;;-146.67;100.00;57155.34;5097494;28;8747;-75
2023/08/23 08:25:51;;;;;;;;;2.00;2.00;;;;;-146.67;100.00;57155.34;5097875;28;8810;-75
2023/08/23 08:28:17;;;;;;;;;1.00;1.00;;;;;-146.67;100.00;57155.34;5088224;28;8783;-76
2023/08/23 08:30:42;;;;;;;;;2.00;1.00;;;;;-146.67;100.00;57155.34;5084315;28;8814;-75
2023/08/23 08:33:07;;;;;;;;;1.00;0.33;;;;;-146.67;100.00;57155.34;5066530;28;8852;-74
2023/08/23 08:35:33;;;;;;;;;1.00;1.00;;;;;-146.67;100.00;57155.34;5084565;28;8794;-74
2023/08/23 08:37:58;;;;;;;;;2.67;1.67;;;;;-146.67;100.00;57155.34;5070783;28;8834;-77
2023/08/23 08:40:24;;;;;;;;;1.67;0.67;;;;;-146.67;100.00;57155.34;5060003;28;8859;-77
2023/08/23 08:42:50;;;;;;;;;2.33;0.67;;;;;-146.67;100.00;57155.34;5083640;28;8824;-78
2023/08/23 08:45:15;;;;;;;;;1.33;1.00;;;;;-146.67;100.00;57155.34;5083911;28;9716;-78
2023/08/23 08:47:42;;;;;;;;;1.00;1.00;;;;;-146.67;100.00;57155.34;5061002;28;8797;-77
2023/08/23 08:50:08;;;;;;;;;2.33;1.33;;;;;-146.67;100.00;57155.34;5088817;28;8788;-75
2023/08/23 08:52:36;;;;;;;;;2.00;0.67;;;;;-146.67;100.00;57155.34;5080818;28;9258;-75
2023/08/23 08:55:03;;;;;;;;;2.00;2.00;;;;;-146.67;100.00;57155.34;5083082;28;9527;-76
2023/08/23 08:57:30;;;;;;;;;1.00;1.00;;;;;-146.67;100.00;57155.34;5065189;28;9206;-76
2023/08/23 08:59:56;;;;;;;;;1.00;1.00;;;;;-146.67;100.00;57155.34;5065769;28;9265;-76
2023/08/23 09:02:23;;;;;;;;;2.00;2.00;;;;;-146.67;100.00;57155.34;5081922;28;9348;-77
2023/08/23 09:05:16;;;;;;;;;1.00;1.00;;;;;-146.67;100.00;57155.34;5082245;28;10130;-77
2023/08/23 09:07:42;;;;;;;;;2.00;2.00;;;;;-146.67;100.00;57155.34;5083371;28;9130;-77
2023/08/23 09:10:07;;;;;;;;;1.67;1.67;;;;;-146.67;100.00;57155.34;5065707;28;9228;-77
2023/08/23 09:12:33;;;;;;;;;3.00;1.67;;;;;-146.67;100.00;57155.34;5083764;28;8779;-77
2023/08/23 09:15:05;;;;;;;;;3.67;1.00;;;;;-146.67;100.00;57155.34;5065560;28;9856;-75
2023/08/23 09:17:34;;;;;;;;;5.33;1.33;;;;;-146.67;100.00;57155.34;5063471;28;8729;-78
2023/08/23 09:20:03;;;;;;;;;2.00;2.00;;;;;-146.67;100.00;57155.34;5044567;28;9226;-75
2023/08/23 09:22:31;;;;;;;;;3.33;1.67;;;;;-146.67;100.00;57155.34;5048201;28;9293;-77
2023/08/23 09:24:57;;;;;;;;;0.33;0.33;;;;;-146.67;100.00;57155.34;5064536;28;10245;-77
2023/08/23 09:27:24;;;;;;;;;2.00;2.00;;;;;-146.67;100.00;57155.34;5082521;28;9345;-76
2023/08/23 09:29:53;;;;;;;;;1.67;1.67;;;;;-146.67;100.00;57155.34;5082957;28;10796;-76
2023/08/23 09:32:20;;;;;;;;;2.33;1.00;;;;;-146.67;100.00;57155.34;5077698;28;9530;-78
2023/08/23 09:34:45;;;;;;;;;4.00;2.00;;;;;-146.67;100.00;57155.34;5045251;28;10181;-75
2023/08/23 09:37:11;;;;;;;;;2.67;2.67;;;;;-146.67;100.00;57155.34;5071336;28;9274;-76
2023/08/23 09:39:36;;;;;;;;;1.33;1.33;;;;;-146.67;100.00;57155.34;5077407;28;8799;-77
2023/08/23 09:42:05;;;;;;;;;1.00;1.00;;;;;-146.67;100.00;57155.34;5082676;28;8844;-77
2023/08/23 09:44:39;;;;;;;;;3.67;2.00;;;;;-146.67;100.00;57155.34;5083390;28;9756;-75
2023/08/23 09:47:06;;;;;;;;;1.67;1.67;;;;;-146.67;100.00;57155.34;5082734;28;9279;-75
2023/08/23 09:49:33;;;;;;;;;2.33;1.33;;;;;-146.67;100.00;57155.34;5081227;28;9278;-77
2023/08/23 09:52:00;;;;;;;;;1.33;1.33;;;;;-146.67;100.00;57155.34;5083055;28;9995;-77
2023/08/23 09:54:54;;;;;;;;;3.33;2.00;;;;;-146.67;100.00;57155.34;5083121;28;9451;-78
2023/08/23 09:57:23;;;;;;;;;2.33;2.33;;;;;-146.67;100.00;57155.34;5083168;28;9266;-78
2023/08/23 09:59:50;;;;;;;;;4.67;3.67;;;;;-146.67;100.00;57155.34;5083443;28;9269;-78
2023/08/23 10:02:18;;;;;;;;;2.33;2.33;;;;;-146.67;100.00;57155.34;5082134;28;9364;-79
2023/08/23 10:04:44;;;;;;;;;2.67;1.33;;;;;-146.67;100.00;57155.34;5064403;28;10294;-78
2023/08/23 10:07:15;;;;;;;;;1.00;1.00;;;;;-146.67;100.00;57155.34;5081966;28;9122;-77
2023/08/23 10:09:41;;;;;;;;;1.33;1.33;;;;;-146.67;100.00;57155.34;5078883;28;9000;-77
2023/08/23 10:12:08;;;;;;;;;1.00;1.00;;;;;-146.67;100.00;57155.34;5081832;28;9294;-78
2023/08/23 10:14:41;;;;;;;;;1.67;1.00;;;;;-146.67;100.00;57155.34;5064662;28;10259;-81
2023/08/23 10:17:09;;;;;;;;;4.33;2.00;;;;;-146.67;100.00;57155.34;5079955;28;9127;-80
2023/08/23 10:19:34;;;;;;;;;1.25;1.25;;;;;-146.67;100.00;57155.34;5062275;28;9103;-78
2023/08/23 10:22:00;;;;;;;;;3.33;2.00;;;;;-146.67;100.00;57155.34;5051527;28;8818;-78
2023/08/23 10:24:29;;;;;;;;;3.33;2.00;;;;;-146.67;100.00;57155.34;5064255;28;10098;-79
2023/08/23 10:26:54;;;;;;;;;4.00;1.67;;;;;-146.67;100.00;57155.34;5063904;28;8785;-75
2023/08/23 10:29:27;;;;;;;;;2.00;1.00;;;;;-146.67;100.00;57155.34;5063638;28;9564;-74
2023/08/23 10:31:54;;;;;;;;;2.67;2.67;;;;;-146.67;100.00;57155.34;5083382;28;8747;-74
2023/08/23 10:34:26;;;;;;;;;2.67;2.67;;;;;-146.67;100.00;57155.34;5082287;28;9321;-74
2023/08/23 10:36:56;;;;;;;;;3.33;3.00;;;;;-146.67;100.00;57155.34;5075824;28;9095;-74
2023/08/23 10:39:23;;;;;;;;;3.00;2.33;;;;;-146.67;100.00;57155.34;5078435;28;9074;-74
2023/08/23 10:41:53;;;;;;;;;3.00;1.67;;;;;-146.67;100.00;57155.34;5082625;28;9101;-74
2023/08/23 10:44:18;;;;;;;;;5.00;3.00;;;;;-146.67;100.00;57155.34;5082683;28;9312;-74
2023/08/23 10:46:45;;;;;;;;;4.67;2.33;;;;;-146.67;100.00;57155.34;5082673;28;9123;-74
2023/08/23 10:49:14;;;;;;;;;3.00;3.00;;;;;-146.67;100.00;57155.34;5082186;28;8715;-74
2023/08/23 10:51:42;;;;;;;;;2.00;2.00;;;;;-146.67;100.00;57155.34;5082095;28;8967;-74
2023/08/23 10:54:14;;;;;;;;;4.25;1.75;;;;;-146.67;100.00;57155.34;5081443;28;9120;-75
2023/08/23 10:56:40;;;;;;;;;6.00;3.00;;;;;-146.67;100.00;57155.34;5082096;28;8833;-75
2023/08/23 10:59:09;;;;;;;;;2.00;2.00;;;;;-146.67;100.00;57155.34;5063591;28;8968;-77
2023/08/23 11:01:37;;;;;;;;;3.33;2.00;;;;;-146.67;100.00;57155.34;5063512;28;8743;-74
2023/08/23 11:04:05;;;;;;;;;3.00;1.67;;;;;-146.67;100.00;57155.34;5063121;28;10133;-75
2023/08/23 11:06:32;;;;;;;;;4.00;2.00;;;;;-146.67;100.00;57155.34;5078868;28;9049;-75
2023/08/23 11:08:58;;;;;;;;;1.33;1.00;;;;;-146.67;100.00;57155.34;5063102;28;8836;-75
2023/08/23 11:11:30;;;;;;;;;3.33;3.33;;;;;-146.67;100.00;57155.34;5063290;28;8852;-74
2023/08/23 11:13:56;;;;;;;;;2.00;2.00;;;;;-146.67;100.00;57155.34;5079792;28;9025;-74